Airfield :
LOGIN :

Register | Disclaimer

   EN    FR    IT 

 










Legend :    VFR   Marginal VFR   IFR   Intensive IFR   Very Intensive IFR
Visi :
Ceiling :
>= 8 km
>= 3000ft
5 to 8 km
1000 to 3000 ft
1500m to 5 km
500 to 1000 ft
800 to 1500m
200 to 500 ft
< 800m
< 200 ft
Symbols :   Thunderstorms  Fog  Heavy snow  Heavy precipitations  Wind > 20 kt
SIGMETs :     Misc.  Thunderstorms  Icing  Turbulence  Mountain Waves  Volcanic Ashes







- Airport Elevation : 1363 ft


ETIC - Grafenwohr Army Air Field

CURRENT METAR :
  • 260556Z AUTO 00000KT 9000 HZ CLR 20/17 A3023 RMK AO2 SLP215 T02000166 10200 20141 52004 $

EXPIRED METARs :
  • 260541Z AUTO 00000KT 4400 HZ CLR 19/17 A3023 RMK AO2 VIS 4400V6000 SLP215 $
  • 260456Z AUTO 00000KT 9999 CLR 17/16 A3022 RMK AO2 SLP214 T01660159 $
  • 260356Z AUTO 00000KT 9999 CLR 14/14 A3022 RMK AO2 SLP215 T01440144 $

TAF TAF ETIC
Valid from the 26 at 06:00 until the 27 at 12:00 UTC


260618Z 2606/2712 VRB06KT 9999 SKC QNH3020INS TX34/2614Z TN12/2704Z
No reported NOTAMs for that airfield.



MET'MAP, your aeronautical weather chart ! - Copyright ORBIFLY December 2007 - Disclaimer

ORBIFLY MET'MAP TEAM :

Programming & Development : Alexandra Zaïnal
Concept & Development : Baudouin d'Aumeries
Co-Development & Prog : Marc-Olivier Méhu
Technical & hardware support : Manuel Goepfert

Contact : metmap@orbifly.com




SOURCES & CREDITS :

   NOAA